sensor_id;sensor_type;location;lat;lon;timestamp;pressure;altitude;pressure_sealevel;temperature;humidity
62978;BME280;49073;42.352;23.808;2023-05-03T00:01:10;95157.47;;;10.39;52.86
62978;BME280;49073;42.352;23.808;2023-05-03T00:04:11;95167.00;;;10.11;53.06
62978;BME280;49073;42.352;23.808;2023-05-03T00:07:14;95158.94;;;10.08;54.07
62978;BME280;49073;42.352;23.808;2023-05-03T00:10:15;95163.28;;;10.00;54.47
62978;BME280;49073;42.352;23.808;2023-05-03T00:13:15;95171.56;;;9.98;54.54
62978;BME280;49073;42.352;23.808;2023-05-03T00:16:17;95181.94;;;9.87;54.77
62978;BME280;49073;42.352;23.808;2023-05-03T00:19:18;95181.06;;;9.83;55.49
62978;BME280;49073;42.352;23.808;2023-05-03T00:22:19;95174.19;;;9.82;55.63
62978;BME280;49073;42.352;23.808;2023-05-03T00:25:19;95168.28;;;9.89;55.66
62978;BME280;49073;42.352;23.808;2023-05-03T00:28:20;95148.69;;;9.81;56.20
62978;BME280;49073;42.352;23.808;2023-05-03T00:31:21;95135.03;;;9.83;56.47
62978;BME280;49073;42.352;23.808;2023-05-03T00:34:21;95133.47;;;9.82;58.40
62978;BME280;49073;42.352;23.808;2023-05-03T00:37:23;95132.78;;;9.85;57.49
62978;BME280;49073;42.352;23.808;2023-05-03T00:40:23;95141.81;;;9.80;56.99
62978;BME280;49073;42.352;23.808;2023-05-03T00:43:25;95126.84;;;9.75;57.98
62978;BME280;49073;42.352;23.808;2023-05-03T00:46:25;95125.97;;;9.71;57.76
62978;BME280;49073;42.352;23.808;2023-05-03T00:49:26;95126.94;;;9.79;58.15
62978;BME280;49073;42.352;23.808;2023-05-03T00:52:26;95120.91;;;9.95;58.49
62978;BME280;49073;42.352;23.808;2023-05-03T00:55:28;95116.66;;;9.65;59.18
62978;BME280;49073;42.352;23.808;2023-05-03T00:58:30;95128.19;;;9.69;59.37
62978;BME280;49073;42.352;23.808;2023-05-03T01:01:32;95135.28;;;9.40;60.48
62978;BME280;49073;42.352;23.808;2023-05-03T01:04:34;95135.88;;;9.21;60.92
62978;BME280;49073;42.352;23.808;2023-05-03T01:11:29;95127.22;;;9.37;60.86
62978;BME280;49073;42.352;23.808;2023-05-03T01:14:57;95130.88;;;9.44;60.82
62978;BME280;49073;42.352;23.808;2023-05-03T01:18:10;95137.75;;;9.45;61.11
62978;BME280;49073;42.352;23.808;2023-05-03T01:21:15;95137.94;;;9.40;61.20
62978;BME280;49073;42.352;23.808;2023-05-03T01:24:21;95143.28;;;9.28;61.54
62978;BME280;49073;42.352;23.808;2023-05-03T01:27:23;95138.19;;;9.48;60.70
62978;BME280;49073;42.352;23.808;2023-05-03T01:30:26;95124.31;;;9.54;60.63
62978;BME280;49073;42.352;23.808;2023-05-03T01:33:37;95119.09;;;9.70;60.11
62978;BME280;49073;42.352;23.808;2023-05-03T01:36:42;95112.09;;;9.78;60.50
62978;BME280;49073;42.352;23.808;2023-05-03T01:40:00;95118.72;;;9.72;60.06
62978;BME280;49073;42.352;23.808;2023-05-03T01:43:01;95115.75;;;9.73;60.44
62978;BME280;49073;42.352;23.808;2023-05-03T01:46:02;95120.19;;;9.69;61.04
62978;BME280;49073;42.352;23.808;2023-05-03T01:49:03;95106.84;;;9.82;60.83
62978;BME280;49073;42.352;23.808;2023-05-03T01:52:04;95115.19;;;9.80;60.99
62978;BME280;49073;42.352;23.808;2023-05-03T01:55:05;95106.25;;;9.60;61.37
62978;BME280;49073;42.352;23.808;2023-05-03T01:58:06;95093.03;;;9.64;61.30
62978;BME280;49073;42.352;23.808;2023-05-03T02:01:06;95094.59;;;9.65;61.85
62978;BME280;49073;42.352;23.808;2023-05-03T02:04:07;95093.84;;;9.52;62.13
62978;BME280;49073;42.352;23.808;2023-05-03T02:07:07;95080.19;;;9.53;62.08
62978;BME280;49073;42.352;23.808;2023-05-03T02:10:08;95097.72;;;9.54;62.17
62978;BME280;49073;42.352;23.808;2023-05-03T02:13:13;95091.94;;;9.52;62.07
62978;BME280;49073;42.352;23.808;2023-05-03T02:16:17;95083.88;;;9.49;61.95
62978;BME280;49073;42.352;23.808;2023-05-03T02:19:17;95096.63;;;9.43;62.00
62978;BME280;49073;42.352;23.808;2023-05-03T02:22:18;95089.88;;;9.45;61.53
62978;BME280;49073;42.352;23.808;2023-05-03T02:25:19;95094.50;;;9.61;61.34
62978;BME280;49073;42.352;23.808;2023-05-03T02:28:19;95092.75;;;9.53;61.12
62978;BME280;49073;42.352;23.808;2023-05-03T02:31:21;95089.38;;;9.68;61.11
62978;BME280;49073;42.352;23.808;2023-05-03T02:34:22;95091.44;;;9.87;60.78
62978;BME280;49073;42.352;23.808;2023-05-03T02:37:23;95100.38;;;9.95;60.32
62978;BME280;49073;42.352;23.808;2023-05-03T02:40:24;95101.25;;;9.99;59.43
62978;BME280;49073;42.352;23.808;2023-05-03T02:43:24;95099.13;;;10.05;59.03
62978;BME280;49073;42.352;23.808;2023-05-03T02:46:25;95110.31;;;9.82;59.51
62978;BME280;49073;42.352;23.808;2023-05-03T02:49:25;95117.50;;;9.82;60.02
62978;BME280;49073;42.352;23.808;2023-05-03T02:52:26;95117.00;;;10.04;60.25
62978;BME280;49073;42.352;23.808;2023-05-03T02:55:26;95121.09;;;10.02;60.10
62978;BME280;49073;42.352;23.808;2023-05-03T02:58:27;95123.28;;;10.12;60.31
62978;BME280;49073;42.352;23.808;2023-05-03T03:01:28;95111.28;;;10.18;59.91
62978;BME280;49073;42.352;23.808;2023-05-03T03:04:29;95128.28;;;10.14;59.36
62978;BME280;49073;42.352;23.808;2023-05-03T03:07:30;95122.09;;;10.10;59.44
62978;BME280;49073;42.352;23.808;2023-05-03T03:10:30;95127.88;;;9.99;60.00
62978;BME280;49073;42.352;23.808;2023-05-03T03:13:32;95146.06;;;9.97;60.68
62978;BME280;49073;42.352;23.808;2023-05-03T03:16:32;95146.31;;;9.92;61.16
62978;BME280;49073;42.352;23.808;2023-05-03T03:19:33;95142.03;;;9.75;61.68
62978;BME280;49073;42.352;23.808;2023-05-03T03:22:34;95143.97;;;9.50;63.11
62978;BME280;49073;42.352;23.808;2023-05-03T03:25:34;95149.69;;;9.39;62.92
62978;BME280;49073;42.352;23.808;2023-05-03T03:28:35;95140.41;;;9.45;62.51
62978;BME280;49073;42.352;23.808;2023-05-03T03:31:35;95146.38;;;9.30;62.63
62978;BME280;49073;42.352;23.808;2023-05-03T03:34:36;95151.59;;;9.26;63.02
62978;BME280;49073;42.352;23.808;2023-05-03T03:37:37;95161.22;;;9.19;63.45
62978;BME280;49073;42.352;23.808;2023-05-03T03:40:39;95165.34;;;9.16;64.57
62978;BME280;49073;42.352;23.808;2023-05-03T03:43:40;95171.94;;;8.97;64.81
62978;BME280;49073;42.352;23.808;2023-05-03T03:46:40;95172.97;;;8.93;65.03
62978;BME280;49073;42.352;23.808;2023-05-03T03:49:41;95174.53;;;9.06;64.57
62978;BME280;49073;42.352;23.808;2023-05-03T03:52:41;95186.16;;;9.14;64.86
62978;BME280;49073;42.352;23.808;2023-05-03T03:55:42;95180.50;;;9.03;63.87
62978;BME280;49073;42.352;23.808;2023-05-03T03:58:42;95190.56;;;9.10;64.45
62978;BME280;49073;42.352;23.808;2023-05-03T04:01:43;95197.66;;;9.06;63.92
62978;BME280;49073;42.352;23.808;2023-05-03T04:04:44;95208.28;;;9.06;64.08
62978;BME280;49073;42.352;23.808;2023-05-03T04:07:45;95212.63;;;8.98;64.04
62978;BME280;49073;42.352;23.808;2023-05-03T04:10:46;95208.88;;;9.11;64.12
62978;BME280;49073;42.352;23.808;2023-05-03T04:13:49;95216.25;;;9.06;65.16
62978;BME280;49073;42.352;23.808;2023-05-03T04:16:50;95212.50;;;9.07;66.88
62978;BME280;49073;42.352;23.808;2023-05-03T04:19:51;95224.81;;;9.11;66.12
62978;BME280;49073;42.352;23.808;2023-05-03T04:22:51;95233.56;;;9.12;65.81
62978;BME280;49073;42.352;23.808;2023-05-03T04:25:52;95240.63;;;9.08;65.87
62978;BME280;49073;42.352;23.808;2023-05-03T04:28:52;95230.13;;;8.99;67.05
62978;BME280;49073;42.352;23.808;2023-05-03T04:31:53;95236.97;;;9.00;69.31
62978;BME280;49073;42.352;23.808;2023-05-03T04:34:55;95233.53;;;8.99;71.20
62978;BME280;49073;42.352;23.808;2023-05-03T04:37:56;95236.16;;;8.87;72.40
62978;BME280;49073;42.352;23.808;2023-05-03T04:40:57;95234.44;;;8.70;74.39
62978;BME280;49073;42.352;23.808;2023-05-03T04:43:57;95236.53;;;8.64;74.90
62978;BME280;49073;42.352;23.808;2023-05-03T04:46:58;95236.59;;;8.55;73.96
62978;BME280;49073;42.352;23.808;2023-05-03T04:49:59;95235.75;;;8.64;73.50
62978;BME280;49073;42.352;23.808;2023-05-03T04:52:59;95232.88;;;8.69;74.00
62978;BME280;49073;42.352;23.808;2023-05-03T04:56:00;95225.69;;;8.48;72.90
62978;BME280;49073;42.352;23.808;2023-05-03T04:59:01;95222.59;;;8.67;73.99
62978;BME280;49073;42.352;23.808;2023-05-03T05:02:02;95227.09;;;8.54;73.27
62978;BME280;49073;42.352;23.808;2023-05-03T05:05:04;95216.16;;;8.56;73.45
62978;BME280;49073;42.352;23.808;2023-05-03T05:08:05;95219.13;;;8.54;73.81
62978;BME280;49073;42.352;23.808;2023-05-03T05:11:05;95216.47;;;8.54;74.58
62978;BME280;49073;42.352;23.808;2023-05-03T05:14:07;95213.84;;;8.67;75.11
62978;BME280;49073;42.352;23.808;2023-05-03T05:17:07;95216.94;;;8.69;75.03
62978;BME280;49073;42.352;23.808;2023-05-03T05:20:08;95210.16;;;8.38;75.64
62978;BME280;49073;42.352;23.808;2023-05-03T05:23:12;95220.00;;;8.37;75.20
62978;BME280;49073;42.352;23.808;2023-05-03T05:26:12;95220.69;;;8.47;75.96
62978;BME280;49073;42.352;23.808;2023-05-03T05:29:13;95210.41;;;8.45;75.48
62978;BME280;49073;42.352;23.808;2023-05-03T05:32:14;95218.44;;;8.36;75.73
62978;BME280;49073;42.352;23.808;2023-05-03T05:35:16;95220.00;;;8.37;76.40
62978;BME280;49073;42.352;23.808;2023-05-03T05:38:18;95217.25;;;8.34;76.76
62978;BME280;49073;42.352;23.808;2023-05-03T05:41:18;95210.09;;;8.47;75.83
62978;BME280;49073;42.352;23.808;2023-05-03T05:44:19;95217.94;;;8.64;75.49
62978;BME280;49073;42.352;23.808;2023-05-03T05:47:20;95217.94;;;8.64;74.94
62978;BME280;49073;42.352;23.808;2023-05-03T05:50:21;95219.25;;;8.58;75.77
62978;BME280;49073;42.352;23.808;2023-05-03T05:53:21;95225.53;;;8.53;75.26
62978;BME280;49073;42.352;23.808;2023-05-03T05:56:23;95234.75;;;8.56;75.63
62978;BME280;49073;42.352;23.808;2023-05-03T05:59:23;95249.44;;;8.53;76.53
62978;BME280;49073;42.352;23.808;2023-05-03T06:02:23;95257.44;;;8.44;76.84
62978;BME280;49073;42.352;23.808;2023-05-03T06:05:24;95257.78;;;8.43;77.18
62978;BME280;49073;42.352;23.808;2023-05-03T06:08:25;95253.13;;;8.61;76.99
62978;BME280;49073;42.352;23.808;2023-05-03T06:11:26;95253.78;;;8.58;76.02
62978;BME280;49073;42.352;23.808;2023-05-03T06:14:27;95252.69;;;8.59;75.77
62978;BME280;49073;42.352;23.808;2023-05-03T06:17:27;95250.84;;;8.51;76.79
62978;BME280;49073;42.352;23.808;2023-05-03T06:20:28;95250.38;;;8.49;76.45
62978;BME280;49073;42.352;23.808;2023-05-03T06:23:29;95249.56;;;8.57;75.98
62978;BME280;49073;42.352;23.808;2023-05-03T06:26:30;95248.53;;;8.70;76.26
62978;BME280;49073;42.352;23.808;2023-05-03T06:29:30;95246.28;;;8.60;76.21
62978;BME280;49073;42.352;23.808;2023-05-03T06:32:31;95240.50;;;8.58;76.00
62978;BME280;49073;42.352;23.808;2023-05-03T06:35:31;95232.19;;;8.59;76.62
62978;BME280;49073;42.352;23.808;2023-05-03T06:38:33;95245.81;;;8.58;77.13
62978;BME280;49073;42.352;23.808;2023-05-03T06:41:33;95236.47;;;8.52;76.43
62978;BME280;49073;42.352;23.808;2023-05-03T06:44:34;95226.63;;;8.52;77.14
62978;BME280;49073;42.352;23.808;2023-05-03T06:47:34;95228.88;;;8.41;77.16
62978;BME280;49073;42.352;23.808;2023-05-03T06:50:36;95238.38;;;8.42;78.07
62978;BME280;49073;42.352;23.808;2023-05-03T06:53:36;95239.28;;;8.47;78.25
62978;BME280;49073;42.352;23.808;2023-05-03T06:56:38;95255.66;;;8.57;78.34
62978;BME280;49073;42.352;23.808;2023-05-03T06:59:38;95251.00;;;8.54;77.92
62978;BME280;49073;42.352;23.808;2023-05-03T07:02:39;95248.34;;;8.54;78.05
62978;BME280;49073;42.352;23.808;2023-05-03T07:05:39;95250.69;;;8.56;78.67
62978;BME280;49073;42.352;23.808;2023-05-03T07:08:40;95246.06;;;8.65;78.36
62978;BME280;49073;42.352;23.808;2023-05-03T07:11:40;95248.47;;;8.58;78.68
62978;BME280;49073;42.352;23.808;2023-05-03T07:14:46;95246.72;;;8.62;78.92
62978;BME280;49073;42.352;23.808;2023-05-03T07:17:47;95227.56;;;8.48;79.25
62978;BME280;49073;42.352;23.808;2023-05-03T07:20:47;95215.81;;;8.57;79.40
62978;BME280;49073;42.352;23.808;2023-05-03T07:23:48;95212.38;;;8.57;79.68
62978;BME280;49073;42.352;23.808;2023-05-03T07:26:48;95200.75;;;8.62;79.61
62978;BME280;49073;42.352;23.808;2023-05-03T07:29:49;95205.44;;;8.65;79.82
62978;BME280;49073;42.352;23.808;2023-05-03T07:32:49;95195.09;;;8.84;79.72
62978;BME280;49073;42.352;23.808;2023-05-03T07:35:50;95197.84;;;8.88;78.43
62978;BME280;49073;42.352;23.808;2023-05-03T07:38:51;95190.91;;;9.08;77.53
62978;BME280;49073;42.352;23.808;2023-05-03T07:41:51;95200.81;;;9.45;77.42
62978;BME280;49073;42.352;23.808;2023-05-03T07:44:52;95198.47;;;9.68;76.21
62978;BME280;49073;42.352;23.808;2023-05-03T07:47:55;95194.81;;;9.73;76.09
62978;BME280;49073;42.352;23.808;2023-05-03T07:50:56;95197.38;;;9.69;75.12
62978;BME280;49073;42.352;23.808;2023-05-03T07:53:56;95189.03;;;9.58;75.35
62978;BME280;49073;42.352;23.808;2023-05-03T07:56:57;95191.19;;;9.53;75.18
62978;BME280;49073;42.352;23.808;2023-05-03T07:59:57;95197.03;;;9.71;75.26
62978;BME280;49073;42.352;23.808;2023-05-03T08:02:58;95194.22;;;10.04;74.58
62978;BME280;49073;42.352;23.808;2023-05-03T08:05:58;95195.69;;;10.43;73.72
62978;BME280;49073;42.352;23.808;2023-05-03T08:08:59;95190.00;;;10.73;72.88
62978;BME280;49073;42.352;23.808;2023-05-03T08:12:00;95192.19;;;10.99;71.03
62978;BME280;49073;42.352;23.808;2023-05-03T08:15:03;95188.31;;;10.97;72.05
62978;BME280;49073;42.352;23.808;2023-05-03T08:18:08;95168.03;;;10.92;69.99
62978;BME280;49073;42.352;23.808;2023-05-03T08:21:08;95173.41;;;10.64;70.12
62978;BME280;49073;42.352;23.808;2023-05-03T08:24:09;95170.59;;;10.44;69.93
62978;BME280;49073;42.352;23.808;2023-05-03T08:27:10;95154.28;;;10.45;70.32
62978;BME280;49073;42.352;23.808;2023-05-03T08:30:11;95175.09;;;10.56;71.59
62978;BME280;49073;42.352;23.808;2023-05-03T08:33:12;95177.13;;;10.75;70.72
62978;BME280;49073;42.352;23.808;2023-05-03T08:36:12;95184.00;;;10.76;70.38
62978;BME280;49073;42.352;23.808;2023-05-03T08:39:13;95168.00;;;10.76;70.20
62978;BME280;49073;42.352;23.808;2023-05-03T08:42:14;95157.50;;;10.83;70.27
62978;BME280;49073;42.352;23.808;2023-05-03T08:45:15;95151.41;;;11.15;69.85
62978;BME280;49073;42.352;23.808;2023-05-03T08:48:16;95131.88;;;10.95;69.98
62978;BME280;49073;42.352;23.808;2023-05-03T08:51:18;95141.75;;;11.42;71.48
62978;BME280;49073;42.352;23.808;2023-05-03T08:54:19;95138.56;;;11.88;69.90
62978;BME280;49073;42.352;23.808;2023-05-03T08:57:22;95146.97;;;12.26;67.98
62978;BME280;49073;42.352;23.808;2023-05-03T09:00:27;95149.56;;;12.03;66.73
62978;BME280;49073;42.352;23.808;2023-05-03T09:03:29;95141.16;;;12.20;67.70
62978;BME280;49073;42.352;23.808;2023-05-03T09:06:30;95144.09;;;12.78;66.62
62978;BME280;49073;42.352;23.808;2023-05-03T09:09:34;95140.25;;;12.99;65.55
62978;BME280;49073;42.352;23.808;2023-05-03T09:12:36;95140.19;;;13.18;64.68
62978;BME280;49073;42.352;23.808;2023-05-03T09:15:40;95139.97;;;13.31;65.05
62978;BME280;49073;42.352;23.808;2023-05-03T09:18:40;95132.78;;;13.35;64.40
62978;BME280;49073;42.352;23.808;2023-05-03T09:21:45;95133.78;;;13.50;65.09
62978;BME280;49073;42.352;23.808;2023-05-03T09:24:56;95131.00;;;13.96;62.47
62978;BME280;49073;42.352;23.808;2023-05-03T09:28:00;95129.16;;;14.04;61.14
62978;BME280;49073;42.352;23.808;2023-05-03T09:31:05;95145.19;;;14.31;61.14
62978;BME280;49073;42.352;23.808;2023-05-03T09:34:21;95158.81;;;14.19;61.89
62978;BME280;49073;42.352;23.808;2023-05-03T09:37:35;95144.81;;;13.72;62.39
62978;BME280;49073;42.352;23.808;2023-05-03T09:40:47;95136.25;;;13.62;62.59
62978;BME280;49073;42.352;23.808;2023-05-03T09:43:50;95127.34;;;13.81;61.99
62978;BME280;49073;42.352;23.808;2023-05-03T09:47:02;95143.63;;;12.95;62.90
62978;BME280;49073;42.352;23.808;2023-05-03T09:50:04;95156.59;;;12.70;66.29
62978;BME280;49073;42.352;23.808;2023-05-03T09:53:06;95160.00;;;12.71;66.99
62978;BME280;49073;42.352;23.808;2023-05-03T09:56:10;95145.03;;;12.66;66.36
62978;BME280;49073;42.352;23.808;2023-05-03T09:59:14;95143.06;;;12.63;66.47
62978;BME280;49073;42.352;23.808;2023-05-03T10:02:15;95137.78;;;12.66;67.33
62978;BME280;49073;42.352;23.808;2023-05-03T10:05:18;95139.22;;;12.60;67.27
62978;BME280;49073;42.352;23.808;2023-05-03T10:11:33;95146.25;;;12.29;68.21
62978;BME280;49073;42.352;23.808;2023-05-03T10:14:35;95143.66;;;12.33;69.95
62978;BME280;49073;42.352;23.808;2023-05-03T10:17:37;95152.91;;;12.59;70.10
62978;BME280;49073;42.352;23.808;2023-05-03T10:20:52;95151.44;;;12.61;68.83
62978;BME280;49073;42.352;23.808;2023-05-03T10:24:10;95141.72;;;12.73;68.80
62978;BME280;49073;42.352;23.808;2023-05-03T10:27:12;95135.66;;;12.76;68.51
62978;BME280;49073;42.352;23.808;2023-05-03T10:36:30;95142.34;;;12.66;67.66
62978;BME280;49073;42.352;23.808;2023-05-03T10:39:31;95150.31;;;12.62;67.90
62978;BME280;49073;42.352;23.808;2023-05-03T10:42:31;95140.47;;;12.66;67.41
62978;BME280;49073;42.352;23.808;2023-05-03T10:45:32;95135.94;;;12.71;67.69
62978;BME280;49073;42.352;23.808;2023-05-03T10:48:34;95124.97;;;12.76;67.44
62978;BME280;49073;42.352;23.808;2023-05-03T10:51:35;95124.06;;;12.91;68.59
62978;BME280;49073;42.352;23.808;2023-05-03T10:54:42;95125.78;;;12.80;68.97
62978;BME280;49073;42.352;23.808;2023-05-03T10:57:43;95132.25;;;12.56;69.19
62978;BME280;49073;42.352;23.808;2023-05-03T11:00:46;95147.09;;;12.14;70.53
62978;BME280;49073;42.352;23.808;2023-05-03T11:04:10;95136.16;;;11.83;71.45
62978;BME280;49073;42.352;23.808;2023-05-03T11:07:19;95143.50;;;11.70;72.73
62978;BME280;49073;42.352;23.808;2023-05-03T11:10:21;95128.97;;;11.68;72.97
62978;BME280;49073;42.352;23.808;2023-05-03T11:13:22;95125.59;;;11.71;73.05
62978;BME280;49073;42.352;23.808;2023-05-03T11:16:24;95116.19;;;11.77;73.08
62978;BME280;49073;42.352;23.808;2023-05-03T11:19:25;95111.84;;;11.88;72.79
62978;BME280;49073;42.352;23.808;2023-05-03T11:22:26;95115.72;;;11.91;72.74
62978;BME280;49073;42.352;23.808;2023-05-03T11:25:26;95099.00;;;11.94;73.60
62978;BME280;49073;42.352;23.808;2023-05-03T11:28:27;95109.56;;;12.06;73.00
62978;BME280;49073;42.352;23.808;2023-05-03T11:31:27;95106.81;;;12.03;72.24
62978;BME280;49073;42.352;23.808;2023-05-03T11:34:28;95094.59;;;12.02;72.57
62978;BME280;49073;42.352;23.808;2023-05-03T11:37:28;95090.59;;;12.12;73.03
62978;BME280;49073;42.352;23.808;2023-05-03T11:40:29;95085.72;;;12.37;72.47
62978;BME280;49073;42.352;23.808;2023-05-03T11:43:30;95094.75;;;12.52;71.99
62978;BME280;49073;42.352;23.808;2023-05-03T11:46:34;95087.91;;;12.55;71.52
62978;BME280;49073;42.352;23.808;2023-05-03T11:49:36;95094.94;;;12.40;71.72
62978;BME280;49073;42.352;23.808;2023-05-03T11:52:37;95091.13;;;12.41;71.99
62978;BME280;49073;42.352;23.808;2023-05-03T11:55:40;95075.63;;;12.50;69.89
62978;BME280;49073;42.352;23.808;2023-05-03T11:58:56;95080.50;;;12.68;70.16
62978;BME280;49073;42.352;23.808;2023-05-03T12:01:57;95073.63;;;12.66;69.64
62978;BME280;49073;42.352;23.808;2023-05-03T12:05:00;95066.59;;;12.58;70.22
62978;BME280;49073;42.352;23.808;2023-05-03T12:08:01;95068.75;;;12.49;71.02
62978;BME280;49073;42.352;23.808;2023-05-03T12:11:05;95077.69;;;12.37;71.18
62978;BME280;49073;42.352;23.808;2023-05-03T12:14:05;95078.47;;;12.38;73.77
62978;BME280;49073;42.352;23.808;2023-05-03T12:17:06;95075.75;;;12.14;77.41
62978;BME280;49073;42.352;23.808;2023-05-03T12:20:18;95074.69;;;11.99;80.54
62978;BME280;49073;42.352;23.808;2023-05-03T12:23:19;95081.34;;;11.70;80.31
62978;BME280;49073;42.352;23.808;2023-05-03T12:26:20;95073.09;;;11.59;81.54
62978;BME280;49073;42.352;23.808;2023-05-03T12:29:21;95070.47;;;11.43;80.99
62978;BME280;49073;42.352;23.808;2023-05-03T12:32:23;95074.47;;;11.33;81.62
62978;BME280;49073;42.352;23.808;2023-05-03T12:35:25;95072.69;;;11.21;81.87
62978;BME280;49073;42.352;23.808;2023-05-03T12:38:25;95064.78;;;11.25;82.55
62978;BME280;49073;42.352;23.808;2023-05-03T12:41:26;95064.78;;;11.25;82.85
62978;BME280;49073;42.352;23.808;2023-05-03T12:44:29;95058.50;;;11.17;82.74
62978;BME280;49073;42.352;23.808;2023-05-03T12:47:30;95058.81;;;11.15;82.77
62978;BME280;49073;42.352;23.808;2023-05-03T12:50:30;95060.63;;;11.11;81.70
62978;BME280;49073;42.352;23.808;2023-05-03T12:53:31;95062.28;;;11.16;82.22
62978;BME280;49073;42.352;23.808;2023-05-03T12:56:32;95059.03;;;11.06;82.20
62978;BME280;49073;42.352;23.808;2023-05-03T12:59:32;95054.56;;;10.95;83.02
62978;BME280;49073;42.352;23.808;2023-05-03T13:02:33;95060.06;;;10.86;83.43
62978;BME280;49073;42.352;23.808;2023-05-03T13:05:35;95067.13;;;10.78;83.82
62978;BME280;49073;42.352;23.808;2023-05-03T13:08:35;95063.00;;;10.81;84.32
62978;BME280;49073;42.352;23.808;2023-05-03T13:11:36;95068.50;;;10.72;86.73
62978;BME280;49073;42.352;23.808;2023-05-03T13:14:37;95058.38;;;10.61;89.79
62978;BME280;49073;42.352;23.808;2023-05-03T13:17:38;95042.88;;;10.51;92.83
62978;BME280;49073;42.352;23.808;2023-05-03T13:20:39;95027.44;;;10.28;94.02
62978;BME280;49073;42.352;23.808;2023-05-03T13:23:40;95029.84;;;10.33;96.55
62978;BME280;49073;42.352;23.808;2023-05-03T13:26:40;95046.00;;;10.25;98.26
62978;BME280;49073;42.352;23.808;2023-05-03T13:29:41;95038.31;;;10.07;100.00
62978;BME280;49073;42.352;23.808;2023-05-03T13:32:42;95049.31;;;10.06;100.00
62978;BME280;49073;42.352;23.808;2023-05-03T13:35:42;95040.22;;;10.07;100.00
62978;BME280;49073;42.352;23.808;2023-05-03T13:38:43;95047.28;;;10.15;100.00
62978;BME280;49073;42.352;23.808;2023-05-03T13:41:44;95039.38;;;10.18;100.00
62978;BME280;49073;42.352;23.808;2023-05-03T13:44:45;95024.50;;;10.17;100.00
62978;BME280;49073;42.352;23.808;2023-05-03T13:47:46;95043.16;;;10.17;100.00
62978;BME280;49073;42.352;23.808;2023-05-03T13:50:47;95049.59;;;10.16;100.00
62978;BME280;49073;42.352;23.808;2023-05-03T13:53:48;95055.59;;;10.13;100.00
62978;BME280;49073;42.352;23.808;2023-05-03T13:56:48;95051.63;;;10.07;100.00
62978;BME280;49073;42.352;23.808;2023-05-03T13:59:49;95052.00;;;10.06;100.00
62978;BME280;49073;42.352;23.808;2023-05-03T14:02:50;95058.63;;;10.12;100.00
62978;BME280;49073;42.352;23.808;2023-05-03T14:05:51;95050.88;;;10.23;100.00
62978;BME280;49073;42.352;23.808;2023-05-03T14:08:52;95044.38;;;10.20;100.00
62978;BME280;49073;42.352;23.808;2023-05-03T14:11:56;95046.91;;;10.16;100.00
62978;BME280;49073;42.352;23.808;2023-05-03T14:15:01;95052.84;;;10.10;100.00
62978;BME280;49073;42.352;23.808;2023-05-03T14:18:02;95050.88;;;10.07;100.00
62978;BME280;49073;42.352;23.808;2023-05-03T14:21:03;95030.13;;;10.28;100.00
62978;BME280;49073;42.352;23.808;2023-05-03T14:24:04;95019.34;;;10.25;100.00
62978;BME280;49073;42.352;23.808;2023-05-03T14:27:05;95019.53;;;10.16;100.00
62978;BME280;49073;42.352;23.808;2023-05-03T14:30:07;95021.59;;;10.07;100.00
62978;BME280;49073;42.352;23.808;2023-05-03T14:33:08;95023.88;;;10.08;100.00
62978;BME280;49073;42.352;23.808;2023-05-03T14:36:10;95016.03;;;9.99;100.00
62978;BME280;49073;42.352;23.808;2023-05-03T14:39:11;95022.13;;;10.28;100.00
62978;BME280;49073;42.352;23.808;2023-05-03T14:42:13;95027.34;;;10.25;100.00
62978;BME280;49073;42.352;23.808;2023-05-03T14:45:15;95035.44;;;10.28;100.00
62978;BME280;49073;42.352;23.808;2023-05-03T14:48:16;95052.44;;;10.24;100.00
62978;BME280;49073;42.352;23.808;2023-05-03T14:51:16;95033.09;;;10.11;100.00
62978;BME280;49073;42.352;23.808;2023-05-03T14:54:18;95019.03;;;10.26;100.00
62978;BME280;49073;42.352;23.808;2023-05-03T14:57:19;95027.56;;;10.32;100.00
62978;BME280;49073;42.352;23.808;2023-05-03T15:00:19;95036.25;;;10.45;100.00
62978;BME280;49073;42.352;23.808;2023-05-03T15:03:20;95044.88;;;10.26;100.00
62978;BME280;49073;42.352;23.808;2023-05-03T15:06:26;95012.38;;;10.65;100.00
62978;BME280;49073;42.352;23.808;2023-05-03T15:09:32;95025.50;;;10.73;100.00
62978;BME280;49073;42.352;23.808;2023-05-03T15:12:32;95014.25;;;10.64;100.00
62978;BME280;49073;42.352;23.808;2023-05-03T15:15:33;95011.31;;;10.69;100.00
62978;BME280;49073;42.352;23.808;2023-05-03T15:18:33;95012.84;;;10.38;100.00
62978;BME280;49073;42.352;23.808;2023-05-03T15:21:48;95012.44;;;10.36;100.00
62978;BME280;49073;42.352;23.808;2023-05-03T15:24:49;95018.28;;;10.42;100.00
62978;BME280;49073;42.352;23.808;2023-05-03T15:27:50;95021.13;;;10.49;100.00
62978;BME280;49073;42.352;23.808;2023-05-03T15:30:51;95016.16;;;10.47;100.00
62978;BME280;49073;42.352;23.808;2023-05-03T15:33:52;95020.09;;;10.54;100.00
62978;BME280;49073;42.352;23.808;2023-05-03T15:36:53;95022.50;;;10.59;100.00
62978;BME280;49073;42.352;23.808;2023-05-03T15:39:53;95024.06;;;10.76;100.00
62978;BME280;49073;42.352;23.808;2023-05-03T15:42:54;95022.16;;;10.76;100.00
62978;BME280;49073;42.352;23.808;2023-05-03T15:45:55;95028.06;;;10.86;99.05
62978;BME280;49073;42.352;23.808;2023-05-03T15:48:55;95021.19;;;11.01;97.55
62978;BME280;49073;42.352;23.808;2023-05-03T15:51:56;95023.78;;;10.97;97.02
62978;BME280;49073;42.352;23.808;2023-05-03T15:54:57;95016.66;;;10.85;98.11
62978;BME280;49073;42.352;23.808;2023-05-03T15:57:57;95025.34;;;10.82;98.46
62978;BME280;49073;42.352;23.808;2023-05-03T16:00:58;95035.84;;;10.59;100.00
62978;BME280;49073;42.352;23.808;2023-05-03T16:03:59;95024.75;;;10.73;99.74
62978;BME280;49073;42.352;23.808;2023-05-03T16:07:00;95016.91;;;10.80;98.32